sensor_id;sensor_type;location;lat;lon;timestamp;temperature;humidity
31677;DHT22;18385;51.572;6.578;2022-07-22T00:01:29;19.70;71.40
31677;DHT22;18385;51.572;6.578;2022-07-22T00:03:55;19.70;71.40
31677;DHT22;18385;51.572;6.578;2022-07-22T00:06:20;19.70;71.40
31677;DHT22;18385;51.572;6.578;2022-07-22T00:08:46;19.70;71.50
31677;DHT22;18385;51.572;6.578;2022-07-22T00:11:12;19.70;71.50
31677;DHT22;18385;51.572;6.578;2022-07-22T00:13:37;19.70;72.30
31677;DHT22;18385;51.572;6.578;2022-07-22T00:16:03;19.70;71.50
31677;DHT22;18385;51.572;6.578;2022-07-22T00:18:29;19.70;71.40
31677;DHT22;18385;51.572;6.578;2022-07-22T00:20:55;19.70;71.50
31677;DHT22;18385;51.572;6.578;2022-07-22T00:23:21;19.70;71.60
31677;DHT22;18385;51.572;6.578;2022-07-22T00:25:47;19.70;71.60
31677;DHT22;18385;51.572;6.578;2022-07-22T00:28:12;19.80;71.70
31677;DHT22;18385;51.572;6.578;2022-07-22T00:30:38;19.70;71.60
31677;DHT22;18385;51.572;6.578;2022-07-22T00:33:04;19.70;71.50
31677;DHT22;18385;51.572;6.578;2022-07-22T00:35:30;19.60;71.60
31677;DHT22;18385;51.572;6.578;2022-07-22T00:37:55;19.50;71.60
31677;DHT22;18385;51.572;6.578;2022-07-22T00:40:21;19.50;71.80
31677;DHT22;18385;51.572;6.578;2022-07-22T00:42:47;19.40;71.90
31677;DHT22;18385;51.572;6.578;2022-07-22T00:45:13;19.40;72.00
31677;DHT22;18385;51.572;6.578;2022-07-22T00:47:39;19.40;72.00
31677;DHT22;18385;51.572;6.578;2022-07-22T00:50:06;19.30;72.00
31677;DHT22;18385;51.572;6.578;2022-07-22T00:52:32;19.30;72.10
31677;DHT22;18385;51.572;6.578;2022-07-22T00:54:59;19.30;72.20
31677;DHT22;18385;51.572;6.578;2022-07-22T00:57:25;19.30;72.30
31677;DHT22;18385;51.572;6.578;2022-07-22T00:59:51;19.30;72.30
31677;DHT22;18385;51.572;6.578;2022-07-22T01:02:17;19.40;72.50
31677;DHT22;18385;51.572;6.578;2022-07-22T01:04:43;19.40;72.30
31677;DHT22;18385;51.572;6.578;2022-07-22T01:07:09;19.30;72.10
31677;DHT22;18385;51.572;6.578;2022-07-22T01:09:34;19.30;72.30
31677;DHT22;18385;51.572;6.578;2022-07-22T01:12:01;19.20;72.40
31677;DHT22;18385;51.572;6.578;2022-07-22T01:14:27;19.20;72.60
31677;DHT22;18385;51.572;6.578;2022-07-22T01:16:53;19.20;72.60
31677;DHT22;18385;51.572;6.578;2022-07-22T01:19:18;19.20;72.50
31677;DHT22;18385;51.572;6.578;2022-07-22T01:21:44;19.20;72.70
31677;DHT22;18385;51.572;6.578;2022-07-22T01:24:10;19.20;72.60
31677;DHT22;18385;51.572;6.578;2022-07-22T01:26:36;19.20;72.60
31677;DHT22;18385;51.572;6.578;2022-07-22T01:29:03;19.20;72.60
31677;DHT22;18385;51.572;6.578;2022-07-22T01:31:29;19.20;72.70
31677;DHT22;18385;51.572;6.578;2022-07-22T01:33:56;19.20;72.60
31677;DHT22;18385;51.572;6.578;2022-07-22T01:36:22;19.20;72.60
31677;DHT22;18385;51.572;6.578;2022-07-22T01:38:47;19.20;72.60
31677;DHT22;18385;51.572;6.578;2022-07-22T01:41:13;19.20;72.60
31677;DHT22;18385;51.572;6.578;2022-07-22T01:43:39;19.20;72.60
31677;DHT22;18385;51.572;6.578;2022-07-22T01:46:06;19.20;72.60
31677;DHT22;18385;51.572;6.578;2022-07-22T01:48:34;19.20;72.60
31677;DHT22;18385;51.572;6.578;2022-07-22T01:50:59;19.20;72.60
31677;DHT22;18385;51.572;6.578;2022-07-22T01:53:26;19.20;72.50
31677;DHT22;18385;51.572;6.578;2022-07-22T01:55:51;19.20;72.80
31677;DHT22;18385;51.572;6.578;2022-07-22T01:58:19;19.20;72.70
31677;DHT22;18385;51.572;6.578;2022-07-22T02:00:46;19.20;72.60
31677;DHT22;18385;51.572;6.578;2022-07-22T02:03:12;19.20;72.60
31677;DHT22;18385;51.572;6.578;2022-07-22T02:05:38;19.20;72.60
31677;DHT22;18385;51.572;6.578;2022-07-22T02:08:14;19.20;72.50
31677;DHT22;18385;51.572;6.578;2022-07-22T02:11:00;19.30;72.70
31677;DHT22;18385;51.572;6.578;2022-07-22T02:13:26;19.20;72.60
31677;DHT22;18385;51.572;6.578;2022-07-22T02:15:51;19.30;72.60
31677;DHT22;18385;51.572;6.578;2022-07-22T02:18:18;19.30;72.50
31677;DHT22;18385;51.572;6.578;2022-07-22T02:20:45;19.30;72.50
31677;DHT22;18385;51.572;6.578;2022-07-22T02:23:11;19.30;72.60
31677;DHT22;18385;51.572;6.578;2022-07-22T02:25:38;19.30;72.40
31677;DHT22;18385;51.572;6.578;2022-07-22T02:28:04;19.30;72.40
31677;DHT22;18385;51.572;6.578;2022-07-22T02:30:30;19.30;72.60
31677;DHT22;18385;51.572;6.578;2022-07-22T02:32:57;19.30;72.50
31677;DHT22;18385;51.572;6.578;2022-07-22T02:35:23;19.30;72.40
31677;DHT22;18385;51.572;6.578;2022-07-22T02:37:51;19.30;72.40
31677;DHT22;18385;51.572;6.578;2022-07-22T02:40:17;19.30;72.40
31677;DHT22;18385;51.572;6.578;2022-07-22T02:42:43;19.30;72.30
31677;DHT22;18385;51.572;6.578;2022-07-22T02:45:09;19.30;72.30
31677;DHT22;18385;51.572;6.578;2022-07-22T02:47:35;19.40;72.40
31677;DHT22;18385;51.572;6.578;2022-07-22T02:50:01;19.30;72.30
31677;DHT22;18385;51.572;6.578;2022-07-22T02:52:27;19.30;72.30
31677;DHT22;18385;51.572;6.578;2022-07-22T02:54:53;19.30;72.30
31677;DHT22;18385;51.572;6.578;2022-07-22T02:57:19;19.40;73.20
31677;DHT22;18385;51.572;6.578;2022-07-22T02:59:46;19.40;72.40
31677;DHT22;18385;51.572;6.578;2022-07-22T03:02:12;19.30;72.30
31677;DHT22;18385;51.572;6.578;2022-07-22T03:04:38;19.40;72.30
31677;DHT22;18385;51.572;6.578;2022-07-22T03:07:05;19.30;72.20
31677;DHT22;18385;51.572;6.578;2022-07-22T03:09:32;19.30;72.20
31677;DHT22;18385;51.572;6.578;2022-07-22T03:11:57;19.20;72.20
31677;DHT22;18385;51.572;6.578;2022-07-22T03:14:23;19.20;72.20
31677;DHT22;18385;51.572;6.578;2022-07-22T03:16:49;19.20;72.40
31677;DHT22;18385;51.572;6.578;2022-07-22T03:19:14;19.20;72.40
31677;DHT22;18385;51.572;6.578;2022-07-22T03:21:43;19.20;72.30
31677;DHT22;18385;51.572;6.578;2022-07-22T03:24:09;19.20;72.30
31677;DHT22;18385;51.572;6.578;2022-07-22T03:26:35;19.20;72.30
31677;DHT22;18385;51.572;6.578;2022-07-22T03:29:00;19.20;72.20
31677;DHT22;18385;51.572;6.578;2022-07-22T03:31:28;19.20;72.20
31677;DHT22;18385;51.572;6.578;2022-07-22T03:33:54;19.20;72.20
31677;DHT22;18385;51.572;6.578;2022-07-22T03:36:20;19.20;72.20
31677;DHT22;18385;51.572;6.578;2022-07-22T03:38:49;19.20;72.10
31677;DHT22;18385;51.572;6.578;2022-07-22T03:41:15;19.20;72.20
31677;DHT22;18385;51.572;6.578;2022-07-22T03:43:41;19.20;72.30
31677;DHT22;18385;51.572;6.578;2022-07-22T03:46:07;19.10;72.10
31677;DHT22;18385;51.572;6.578;2022-07-22T03:48:33;19.20;72.30
31677;DHT22;18385;51.572;6.578;2022-07-22T03:50:58;19.10;72.30
31677;DHT22;18385;51.572;6.578;2022-07-22T03:53:26;19.20;72.30
31677;DHT22;18385;51.572;6.578;2022-07-22T03:55:52;19.20;72.10
31677;DHT22;18385;51.572;6.578;2022-07-22T03:58:18;19.20;72.10
31677;DHT22;18385;51.572;6.578;2022-07-22T04:00:44;19.30;72.00
31677;DHT22;18385;51.572;6.578;2022-07-22T04:03:11;19.30;71.90
31677;DHT22;18385;51.572;6.578;2022-07-22T04:05:55;19.30;71.80
31677;DHT22;18385;51.572;6.578;2022-07-22T04:08:32;19.30;71.80
31677;DHT22;18385;51.572;6.578;2022-07-22T04:10:58;19.30;71.70
31677;DHT22;18385;51.572;6.578;2022-07-22T04:13:23;19.30;71.70
31677;DHT22;18385;51.572;6.578;2022-07-22T04:15:55;19.40;71.80
31677;DHT22;18385;51.572;6.578;2022-07-22T04:18:20;19.40;71.70
31677;DHT22;18385;51.572;6.578;2022-07-22T04:20:46;19.40;71.60
31677;DHT22;18385;51.572;6.578;2022-07-22T04:23:28;19.50;71.60
31677;DHT22;18385;51.572;6.578;2022-07-22T04:26:10;19.50;71.50
31677;DHT22;18385;51.572;6.578;2022-07-22T04:28:36;19.50;71.40
31677;DHT22;18385;51.572;6.578;2022-07-22T04:31:04;19.60;71.50
31677;DHT22;18385;51.572;6.578;2022-07-22T04:33:31;19.60;71.40
31677;DHT22;18385;51.572;6.578;2022-07-22T04:35:59;19.60;71.30
31677;DHT22;18385;51.572;6.578;2022-07-22T04:38:24;19.60;71.20
31677;DHT22;18385;51.572;6.578;2022-07-22T04:40:58;19.70;71.30
31677;DHT22;18385;51.572;6.578;2022-07-22T04:43:24;19.70;71.30
31677;DHT22;18385;51.572;6.578;2022-07-22T04:45:50;19.80;71.20
31677;DHT22;18385;51.572;6.578;2022-07-22T04:48:17;19.80;71.10
31677;DHT22;18385;51.572;6.578;2022-07-22T04:50:43;19.90;71.10
31677;DHT22;18385;51.572;6.578;2022-07-22T04:53:09;19.90;71.00
31677;DHT22;18385;51.572;6.578;2022-07-22T04:55:35;19.90;70.90
31677;DHT22;18385;51.572;6.578;2022-07-22T04:58:00;19.90;70.80
31677;DHT22;18385;51.572;6.578;2022-07-22T05:00:26;19.90;70.90
31677;DHT22;18385;51.572;6.578;2022-07-22T05:02:54;20.00;70.80
31677;DHT22;18385;51.572;6.578;2022-07-22T05:05:21;20.00;70.80
31677;DHT22;18385;51.572;6.578;2022-07-22T05:07:48;20.00;70.80
31677;DHT22;18385;51.572;6.578;2022-07-22T05:10:14;20.00;70.90
31677;DHT22;18385;51.572;6.578;2022-07-22T05:12:40;20.10;70.70
31677;DHT22;18385;51.572;6.578;2022-07-22T05:15:06;20.20;70.70
31677;DHT22;18385;51.572;6.578;2022-07-22T05:17:34;20.30;70.50
31677;DHT22;18385;51.572;6.578;2022-07-22T05:20:08;20.30;70.30
31677;DHT22;18385;51.572;6.578;2022-07-22T05:22:34;20.30;70.20
31677;DHT22;18385;51.572;6.578;2022-07-22T05:25:04;20.30;70.20
31677;DHT22;18385;51.572;6.578;2022-07-22T05:27:29;20.40;70.30
31677;DHT22;18385;51.572;6.578;2022-07-22T05:29:56;20.40;70.20
31677;DHT22;18385;51.572;6.578;2022-07-22T05:32:22;20.40;70.20
31677;DHT22;18385;51.572;6.578;2022-07-22T05:34:52;20.40;70.10
31677;DHT22;18385;51.572;6.578;2022-07-22T05:37:17;20.50;70.10
31677;DHT22;18385;51.572;6.578;2022-07-22T05:39:44;20.60;70.00
31677;DHT22;18385;51.572;6.578;2022-07-22T05:42:09;20.60;70.00
31677;DHT22;18385;51.572;6.578;2022-07-22T05:44:35;20.60;70.00
31677;DHT22;18385;51.572;6.578;2022-07-22T05:47:01;20.70;70.00
31677;DHT22;18385;51.572;6.578;2022-07-22T05:49:27;20.80;69.90
31677;DHT22;18385;51.572;6.578;2022-07-22T05:51:59;20.80;69.70
31677;DHT22;18385;51.572;6.578;2022-07-22T05:54:27;20.90;69.40
31677;DHT22;18385;51.572;6.578;2022-07-22T05:56:53;20.90;69.50
31677;DHT22;18385;51.572;6.578;2022-07-22T05:59:19;21.00;69.40
31677;DHT22;18385;51.572;6.578;2022-07-22T06:01:44;21.10;69.20
31677;DHT22;18385;51.572;6.578;2022-07-22T06:04:30;21.10;69.20
31677;DHT22;18385;51.572;6.578;2022-07-22T06:06:56;21.20;69.20
31677;DHT22;18385;51.572;6.578;2022-07-22T06:09:21;21.20;68.90
31677;DHT22;18385;51.572;6.578;2022-07-22T06:11:47;21.30;68.90
31677;DHT22;18385;51.572;6.578;2022-07-22T06:14:13;21.30;68.90
31677;DHT22;18385;51.572;6.578;2022-07-22T06:16:39;21.40;68.90
31677;DHT22;18385;51.572;6.578;2022-07-22T06:19:05;21.40;68.70
31677;DHT22;18385;51.572;6.578;2022-07-22T06:21:31;21.40;68.60
31677;DHT22;18385;51.572;6.578;2022-07-22T06:23:57;21.40;68.50
31677;DHT22;18385;51.572;6.578;2022-07-22T06:26:23;21.40;68.60
31677;DHT22;18385;51.572;6.578;2022-07-22T06:28:49;21.40;68.40
31677;DHT22;18385;51.572;6.578;2022-07-22T06:31:15;21.50;68.50
31677;DHT22;18385;51.572;6.578;2022-07-22T06:33:42;21.50;68.50
31677;DHT22;18385;51.572;6.578;2022-07-22T06:36:08;21.50;68.20
31677;DHT22;18385;51.572;6.578;2022-07-22T06:38:36;21.60;68.30
31677;DHT22;18385;51.572;6.578;2022-07-22T06:41:20;21.60;68.20
31677;DHT22;18385;51.572;6.578;2022-07-22T06:43:55;21.70;68.10
31677;DHT22;18385;51.572;6.578;2022-07-22T06:46:59;21.70;68.00
31677;DHT22;18385;51.572;6.578;2022-07-22T06:49:25;21.80;67.90
31677;DHT22;18385;51.572;6.578;2022-07-22T06:51:52;21.70;67.80
31677;DHT22;18385;51.572;6.578;2022-07-22T06:54:18;21.70;67.70
31677;DHT22;18385;51.572;6.578;2022-07-22T06:56:45;21.80;67.90
31677;DHT22;18385;51.572;6.578;2022-07-22T06:59:16;21.80;67.50
31677;DHT22;18385;51.572;6.578;2022-07-22T07:01:42;21.80;67.50
31677;DHT22;18385;51.572;6.578;2022-07-22T07:04:08;21.70;67.40
31677;DHT22;18385;51.572;6.578;2022-07-22T07:06:37;21.70;67.60
31677;DHT22;18385;51.572;6.578;2022-07-22T07:09:09;21.80;67.80
31677;DHT22;18385;51.572;6.578;2022-07-22T07:11:36;21.80;67.50
31677;DHT22;18385;51.572;6.578;2022-07-22T07:14:08;21.70;68.30
31677;DHT22;18385;51.572;6.578;2022-07-22T07:16:34;21.70;67.50
31677;DHT22;18385;51.572;6.578;2022-07-22T07:19:01;21.80;67.50
31677;DHT22;18385;51.572;6.578;2022-07-22T07:21:27;21.80;67.50
31677;DHT22;18385;51.572;6.578;2022-07-22T07:23:52;21.80;67.20
31677;DHT22;18385;51.572;6.578;2022-07-22T07:26:18;21.70;67.20
31677;DHT22;18385;51.572;6.578;2022-07-22T07:28:46;21.60;67.40
31677;DHT22;18385;51.572;6.578;2022-07-22T07:31:21;21.60;67.50
31677;DHT22;18385;51.572;6.578;2022-07-22T07:33:51;21.70;67.60
31677;DHT22;18385;51.572;6.578;2022-07-22T07:36:20;21.70;67.30
31677;DHT22;18385;51.572;6.578;2022-07-22T07:38:48;21.70;67.20
31677;DHT22;18385;51.572;6.578;2022-07-22T07:41:16;21.70;67.90
31677;DHT22;18385;51.572;6.578;2022-07-22T07:43:43;21.70;67.40
31677;DHT22;18385;51.572;6.578;2022-07-22T07:46:10;21.70;67.20
31677;DHT22;18385;51.572;6.578;2022-07-22T07:48:39;21.70;67.20
31677;DHT22;18385;51.572;6.578;2022-07-22T07:51:05;21.80;67.10
31677;DHT22;18385;51.572;6.578;2022-07-22T07:53:31;21.80;66.90
31677;DHT22;18385;51.572;6.578;2022-07-22T07:55:57;21.80;66.90
31677;DHT22;18385;51.572;6.578;2022-07-22T07:58:23;21.80;66.60
31677;DHT22;18385;51.572;6.578;2022-07-22T08:00:49;21.80;66.80
31677;DHT22;18385;51.572;6.578;2022-07-22T08:03:15;21.90;66.80
31677;DHT22;18385;51.572;6.578;2022-07-22T08:05:41;21.90;66.50
31677;DHT22;18385;51.572;6.578;2022-07-22T08:08:13;21.90;66.50
31677;DHT22;18385;51.572;6.578;2022-07-22T08:10:39;21.90;66.30
31677;DHT22;18385;51.572;6.578;2022-07-22T08:13:31;21.90;66.20
31677;DHT22;18385;51.572;6.578;2022-07-22T08:16:21;21.90;66.30
31677;DHT22;18385;51.572;6.578;2022-07-22T08:18:46;21.90;66.40
31677;DHT22;18385;51.572;6.578;2022-07-22T08:21:12;22.00;66.30
31677;DHT22;18385;51.572;6.578;2022-07-22T08:23:51;22.10;66.10
31677;DHT22;18385;51.572;6.578;2022-07-22T08:26:18;22.20;66.10
31677;DHT22;18385;51.572;6.578;2022-07-22T08:28:44;22.30;66.20
31677;DHT22;18385;51.572;6.578;2022-07-22T08:31:10;22.40;65.80
31677;DHT22;18385;51.572;6.578;2022-07-22T08:33:36;22.50;65.50
31677;DHT22;18385;51.572;6.578;2022-07-22T08:36:03;22.50;66.20
31677;DHT22;18385;51.572;6.578;2022-07-22T08:38:31;22.60;65.30
31677;DHT22;18385;51.572;6.578;2022-07-22T08:40:57;22.80;65.20
31677;DHT22;18385;51.572;6.578;2022-07-22T08:43:25;23.00;65.00
31677;DHT22;18385;51.572;6.578;2022-07-22T08:45:52;23.20;64.70
31677;DHT22;18385;51.572;6.578;2022-07-22T08:48:19;23.40;64.50
31677;DHT22;18385;51.572;6.578;2022-07-22T08:51:11;23.70;64.20
31677;DHT22;18385;51.572;6.578;2022-07-22T08:53:49;23.90;63.90
31677;DHT22;18385;51.572;6.578;2022-07-22T08:56:16;24.00;63.70
31677;DHT22;18385;51.572;6.578;2022-07-22T08:58:42;24.10;63.30
31677;DHT22;18385;51.572;6.578;2022-07-22T09:01:13;24.10;63.10
31677;DHT22;18385;51.572;6.578;2022-07-22T09:06:11;24.10;62.70
31677;DHT22;18385;51.572;6.578;2022-07-22T09:08:57;24.10;62.30
31677;DHT22;18385;51.572;6.578;2022-07-22T09:11:44;24.20;62.40
31677;DHT22;18385;51.572;6.578;2022-07-22T09:14:22;24.30;62.60
31677;DHT22;18385;51.572;6.578;2022-07-22T09:17:33;24.40;62.30
31677;DHT22;18385;51.572;6.578;2022-07-22T09:20:20;24.60;62.20
31677;DHT22;18385;51.572;6.578;2022-07-22T09:23:14;24.80;62.10
31677;DHT22;18385;51.572;6.578;2022-07-22T09:25:44;25.10;61.60
31677;DHT22;18385;51.572;6.578;2022-07-22T09:28:53;25.30;61.40
31677;DHT22;18385;51.572;6.578;2022-07-22T09:31:33;25.50;60.80
31677;DHT22;18385;51.572;6.578;2022-07-22T09:34:10;25.60;60.60
31677;DHT22;18385;51.572;6.578;2022-07-22T09:36:55;25.60;60.40
31677;DHT22;18385;51.572;6.578;2022-07-22T09:39:29;25.60;60.00
31677;DHT22;18385;51.572;6.578;2022-07-22T09:42:03;25.70;59.80
31677;DHT22;18385;51.572;6.578;2022-07-22T09:44:29;25.70;59.80
31677;DHT22;18385;51.572;6.578;2022-07-22T09:47:00;25.70;59.80
31677;DHT22;18385;51.572;6.578;2022-07-22T09:49:44;25.70;59.80
31677;DHT22;18385;51.572;6.578;2022-07-22T09:52:46;25.70;59.50
31677;DHT22;18385;51.572;6.578;2022-07-22T09:55:20;25.60;59.40
31677;DHT22;18385;51.572;6.578;2022-07-22T09:57:47;25.60;59.30
31677;DHT22;18385;51.572;6.578;2022-07-22T10:00:15;25.70;59.30
31677;DHT22;18385;51.572;6.578;2022-07-22T10:02:54;25.80;59.30
31677;DHT22;18385;51.572;6.578;2022-07-22T10:05:23;26.10;59.10
31677;DHT22;18385;51.572;6.578;2022-07-22T10:07:51;26.40;58.80
31677;DHT22;18385;51.572;6.578;2022-07-22T10:10:20;26.40;58.20
31677;DHT22;18385;51.572;6.578;2022-07-22T10:12:49;26.40;58.10
31677;DHT22;18385;51.572;6.578;2022-07-22T10:15:15;26.30;57.90
31677;DHT22;18385;51.572;6.578;2022-07-22T10:17:45;26.20;58.10
31677;DHT22;18385;51.572;6.578;2022-07-22T10:20:11;26.00;57.70
31677;DHT22;18385;51.572;6.578;2022-07-22T10:25:13;25.70;57.50
31677;DHT22;18385;51.572;6.578;2022-07-22T10:30:25;25.90;57.80
31677;DHT22;18385;51.572;6.578;2022-07-22T10:33:09;25.90;57.30
31677;DHT22;18385;51.572;6.578;2022-07-22T10:36:00;26.00;57.10
31677;DHT22;18385;51.572;6.578;2022-07-22T10:38:29;26.10;57.10
31677;DHT22;18385;51.572;6.578;2022-07-22T10:41:03;26.00;56.90
31677;DHT22;18385;51.572;6.578;2022-07-22T10:43:46;26.10;56.80
31677;DHT22;18385;51.572;6.578;2022-07-22T10:46:13;26.30;56.40
31677;DHT22;18385;51.572;6.578;2022-07-22T10:51:16;26.30;56.00
31677;DHT22;18385;51.572;6.578;2022-07-22T10:53:55;26.40;55.90
31677;DHT22;18385;51.572;6.578;2022-07-22T10:58:59;26.60;55.50
31677;DHT22;18385;51.572;6.578;2022-07-22T11:01:30;26.70;55.40
31677;DHT22;18385;51.572;6.578;2022-07-22T11:04:17;26.50;55.00
31677;DHT22;18385;51.572;6.578;2022-07-22T11:06:45;26.30;54.70
31677;DHT22;18385;51.572;6.578;2022-07-22T11:09:13;25.90;54.80
31677;DHT22;18385;51.572;6.578;2022-07-22T11:11:47;25.60;55.00
31677;DHT22;18385;51.572;6.578;2022-07-22T11:14:18;25.30;55.00
31677;DHT22;18385;51.572;6.578;2022-07-22T11:16:46;25.20;55.40
31677;DHT22;18385;51.572;6.578;2022-07-22T11:19:12;25.10;55.30
31677;DHT22;18385;51.572;6.578;2022-07-22T11:21:37;25.10;55.50
31677;DHT22;18385;51.572;6.578;2022-07-22T11:24:05;25.10;55.30
31677;DHT22;18385;51.572;6.578;2022-07-22T11:26:40;25.30;55.30
31677;DHT22;18385;51.572;6.578;2022-07-22T11:29:07;25.60;55.00
31677;DHT22;18385;51.572;6.578;2022-07-22T11:31:34;25.90;54.70
31677;DHT22;18385;51.572;6.578;2022-07-22T11:34:14;26.30;54.50
31677;DHT22;18385;51.572;6.578;2022-07-22T11:36:43;26.50;53.80
31677;DHT22;18385;51.572;6.578;2022-07-22T11:39:11;26.90;53.90
31677;DHT22;18385;51.572;6.578;2022-07-22T11:41:38;27.10;53.30
31677;DHT22;18385;51.572;6.578;2022-07-22T11:44:05;27.10;52.60
31677;DHT22;18385;51.572;6.578;2022-07-22T11:46:41;27.10;52.40
31677;DHT22;18385;51.572;6.578;2022-07-22T11:49:08;27.20;52.20
31677;DHT22;18385;51.572;6.578;2022-07-22T11:51:37;27.30;52.30
31677;DHT22;18385;51.572;6.578;2022-07-22T11:54:05;27.30;52.10
31677;DHT22;18385;51.572;6.578;2022-07-22T11:56:31;27.50;51.90
31677;DHT22;18385;51.572;6.578;2022-07-22T11:58:57;27.60;51.70
31677;DHT22;18385;51.572;6.578;2022-07-22T12:01:27;27.80;51.60
31677;DHT22;18385;51.572;6.578;2022-07-22T12:03:59;27.90;50.90
31677;DHT22;18385;51.572;6.578;2022-07-22T12:06:27;27.80;51.30
31677;DHT22;18385;51.572;6.578;2022-07-22T12:09:08;27.70;50.50
31677;DHT22;18385;51.572;6.578;2022-07-22T12:11:36;27.50;50.40
31677;DHT22;18385;51.572;6.578;2022-07-22T12:14:30;27.50;50.60
31677;DHT22;18385;51.572;6.578;2022-07-22T12:17:06;27.80;50.80
31677;DHT22;18385;51.572;6.578;2022-07-22T12:19:34;28.10;50.10
31677;DHT22;18385;51.572;6.578;2022-07-22T12:22:03;28.30;49.90
31677;DHT22;18385;51.572;6.578;2022-07-22T12:24:44;28.50;49.50
31677;DHT22;18385;51.572;6.578;2022-07-22T12:27:13;28.50;48.90
31677;DHT22;18385;51.572;6.578;2022-07-22T12:32:28;28.50;49.00
31677;DHT22;18385;51.572;6.578;2022-07-22T12:37:25;28.40;48.60
31677;DHT22;18385;51.572;6.578;2022-07-22T12:40:04;28.30;48.30
31677;DHT22;18385;51.572;6.578;2022-07-22T12:42:41;28.30;48.20
31677;DHT22;18385;51.572;6.578;2022-07-22T12:45:18;28.40;48.20
31677;DHT22;18385;51.572;6.578;2022-07-22T12:50:36;28.90;47.50
31677;DHT22;18385;51.572;6.578;2022-07-22T12:53:14;29.00;46.70
31677;DHT22;18385;51.572;6.578;2022-07-22T12:58:07;28.90;47.00
31677;DHT22;18385;51.572;6.578;2022-07-22T13:00:38;29.00;47.00
31677;DHT22;18385;51.572;6.578;2022-07-22T13:03:04;29.20;46.40
31677;DHT22;18385;51.572;6.578;2022-07-22T13:05:30;29.50;46.60
31677;DHT22;18385;51.572;6.578;2022-07-22T13:07:55;29.80;46.60
31677;DHT22;18385;51.572;6.578;2022-07-22T13:10:23;30.10;46.00
31677;DHT22;18385;51.572;6.578;2022-07-22T13:12:49;30.10;45.40
31677;DHT22;18385;51.572;6.578;2022-07-22T13:15:15;30.00;45.00
31677;DHT22;18385;51.572;6.578;2022-07-22T13:17:42;29.80;44.80
31677;DHT22;18385;51.572;6.578;2022-07-22T13:20:10;29.60;44.60
31677;DHT22;18385;51.572;6.578;2022-07-22T13:22:36;29.50;44.70
31677;DHT22;18385;51.572;6.578;2022-07-22T13:25:02;29.80;45.40
31677;DHT22;18385;51.572;6.578;2022-07-22T13:27:28;30.40;46.00
31677;DHT22;18385;51.572;6.578;2022-07-22T13:29:54;31.00;45.00
31677;DHT22;18385;51.572;6.578;2022-07-22T13:32:19;31.50;44.40
31677;DHT22;18385;51.572;6.578;2022-07-22T13:34:45;32.00;43.90
31677;DHT22;18385;51.572;6.578;2022-07-22T13:37:11;32.50;43.40
31677;DHT22;18385;51.572;6.578;2022-07-22T13:39:37;33.00;42.60
31677;DHT22;18385;51.572;6.578;2022-07-22T13:42:03;33.20;42.00
31677;DHT22;18385;51.572;6.578;2022-07-22T13:44:28;33.30;41.30
31677;DHT22;18385;51.572;6.578;2022-07-22T13:46:57;33.50;41.40
31677;DHT22;18385;51.572;6.578;2022-07-22T13:49:23;33.70;40.40
31677;DHT22;18385;51.572;6.578;2022-07-22T13:51:49;33.50;40.00
31677;DHT22;18385;51.572;6.578;2022-07-22T13:54:19;32.90;39.60
31677;DHT22;18385;51.572;6.578;2022-07-22T13:56:46;32.30;39.50
31677;DHT22;18385;51.572;6.578;2022-07-22T13:59:16;31.80;39.70
31677;DHT22;18385;51.572;6.578;2022-07-22T14:01:43;32.00;40.60
31677;DHT22;18385;51.572;6.578;2022-07-22T14:04:09;32.30;39.80
31677;DHT22;18385;51.572;6.578;2022-07-22T14:06:35;32.00;38.90
31677;DHT22;18385;51.572;6.578;2022-07-22T14:09:01;31.70;39.10
31677;DHT22;18385;51.572;6.578;2022-07-22T14:11:28;31.70;39.60
31677;DHT22;18385;51.572;6.578;2022-07-22T14:13:54;32.10;39.50
31677;DHT22;18385;51.572;6.578;2022-07-22T14:16:19;32.70;39.20
31677;DHT22;18385;51.572;6.578;2022-07-22T14:19:06;33.30;38.60
31677;DHT22;18385;51.572;6.578;2022-07-22T14:21:33;34.00;38.10
31677;DHT22;18385;51.572;6.578;2022-07-22T14:23:59;35.00;38.50
31677;DHT22;18385;51.572;6.578;2022-07-22T14:26:25;35.70;36.60
31677;DHT22;18385;51.572;6.578;2022-07-22T14:28:51;36.40;36.00
31677;DHT22;18385;51.572;6.578;2022-07-22T14:31:17;37.10;35.30
31677;DHT22;18385;51.572;6.578;2022-07-22T14:33:43;37.30;33.60
31677;DHT22;18385;51.572;6.578;2022-07-22T14:36:09;36.20;32.90
31677;DHT22;18385;51.572;6.578;2022-07-22T14:38:35;34.90;33.60
31677;DHT22;18385;51.572;6.578;2022-07-22T14:41:00;34.30;35.00
31677;DHT22;18385;51.572;6.578;2022-07-22T14:43:26;34.00;34.80
31677;DHT22;18385;51.572;6.578;2022-07-22T14:45:52;33.80;34.60
31677;DHT22;18385;51.572;6.578;2022-07-22T14:48:18;34.00;35.50
31677;DHT22;18385;51.572;6.578;2022-07-22T14:50:43;34.80;35.10
31677;DHT22;18385;51.572;6.578;2022-07-22T14:53:09;35.70;34.10
31677;DHT22;18385;51.572;6.578;2022-07-22T14:55:35;35.90;32.70
31677;DHT22;18385;51.572;6.578;2022-07-22T14:58:00;36.00;32.70
31677;DHT22;18385;51.572;6.578;2022-07-22T15:00:26;36.20;32.40
31677;DHT22;18385;51.572;6.578;2022-07-22T15:02:52;36.50;32.10
31677;DHT22;18385;51.572;6.578;2022-07-22T15:05:18;36.70;31.90
31677;DHT22;18385;51.572;6.578;2022-07-22T15:07:43;37.40;31.70
31677;DHT22;18385;51.572;6.578;2022-07-22T15:10:09;37.70;30.70
31677;DHT22;18385;51.572;6.578;2022-07-22T15:12:36;37.80;30.80
31677;DHT22;18385;51.572;6.578;2022-07-22T15:15:02;37.90;30.00
31677;DHT22;18385;51.572;6.578;2022-07-22T15:17:34;37.70;29.80
31677;DHT22;18385;51.572;6.578;2022-07-22T15:20:00;37.20;29.50
31677;DHT22;18385;51.572;6.578;2022-07-22T15:22:26;36.60;29.80
31677;DHT22;18385;51.572;6.578;2022-07-22T15:24:53;36.20;30.00
31677;DHT22;18385;51.572;6.578;2022-07-22T15:27:19;36.00;30.00
31677;DHT22;18385;51.572;6.578;2022-07-22T15:29:45;35.80;30.00
31677;DHT22;18385;51.572;6.578;2022-07-22T15:32:14;35.60;30.20
31677;DHT22;18385;51.572;6.578;2022-07-22T15:34:40;35.50;30.00
31677;DHT22;18385;51.572;6.578;2022-07-22T15:37:06;35.00;29.90
31677;DHT22;18385;51.572;6.578;2022-07-22T15:39:32;34.20;30.00
31677;DHT22;18385;51.572;6.578;2022-07-22T15:41:57;33.40;30.30
31677;DHT22;18385;51.572;6.578;2022-07-22T15:44:23;32.70;30.70
31677;DHT22;18385;51.572;6.578;2022-07-22T15:46:49;32.10;31.30
31677;DHT22;18385;51.572;6.578;2022-07-22T15:49:15;31.90;31.80
31677;DHT22;18385;51.572;6.578;2022-07-22T15:51:41;32.00;32.30
31677;DHT22;18385;51.572;6.578;2022-07-22T15:54:06;31.90;31.90
31677;DHT22;18385;51.572;6.578;2022-07-22T15:56:32;32.00;32.30
31677;DHT22;18385;51.572;6.578;2022-07-22T15:58:58;32.00;31.80
31677;DHT22;18385;51.572;6.578;2022-07-22T16:01:43;32.00;32.00
31677;DHT22;18385;51.572;6.578;2022-07-22T16:04:09;32.00;32.10